sensor_id;sensor_type;location;lat;lon;timestamp;P1;durP1;ratioP1;P2;durP2;ratioP2
10248;SDS011;5169;50.560;9.714;2023-11-19T00:00:56;0.80;;;0.70;;
10248;SDS011;5169;50.560;9.714;2023-11-19T00:03:22;0.70;;;0.70;;
10248;SDS011;5169;50.560;9.714;2023-11-19T00:05:47;0.90;;;0.80;;
10248;SDS011;5169;50.560;9.714;2023-11-19T00:08:13;1.03;;;0.80;;
10248;SDS011;5169;50.560;9.714;2023-11-19T00:10:38;1.10;;;0.90;;
10248;SDS011;5169;50.560;9.714;2023-11-19T00:13:06;0.80;;;0.80;;
10248;SDS011;5169;50.560;9.714;2023-11-19T00:15:32;0.90;;;0.77;;
10248;SDS011;5169;50.560;9.714;2023-11-19T00:17:59;0.80;;;0.80;;
10248;SDS011;5169;50.560;9.714;2023-11-19T00:20:29;2.03;;;0.90;;
10248;SDS011;5169;50.560;9.714;2023-11-19T00:22:57;1.00;;;0.90;;
10248;SDS011;5169;50.560;9.714;2023-11-19T00:25:23;0.80;;;0.80;;
10248;SDS011;5169;50.560;9.714;2023-11-19T00:27:51;0.63;;;0.63;;
10248;SDS011;5169;50.560;9.714;2023-11-19T00:30:18;1.53;;;0.80;;
10248;SDS011;5169;50.560;9.714;2023-11-19T00:32:46;1.07;;;0.97;;
10248;SDS011;5169;50.560;9.714;2023-11-19T00:35:12;2.00;;;0.97;;
10248;SDS011;5169;50.560;9.714;2023-11-19T00:37:40;0.80;;;0.80;;
10248;SDS011;5169;50.560;9.714;2023-11-19T00:40:07;0.90;;;0.90;;
10248;SDS011;5169;50.560;9.714;2023-11-19T00:42:35;1.20;;;1.00;;
10248;SDS011;5169;50.560;9.714;2023-11-19T00:45:00;1.23;;;0.70;;
10248;SDS011;5169;50.560;9.714;2023-11-19T00:47:26;0.70;;;0.70;;
10248;SDS011;5169;50.560;9.714;2023-11-19T00:49:56;0.90;;;0.90;;
10248;SDS011;5169;50.560;9.714;2023-11-19T00:52:21;1.00;;;0.80;;
10248;SDS011;5169;50.560;9.714;2023-11-19T00:54:47;0.80;;;0.80;;
10248;SDS011;5169;50.560;9.714;2023-11-19T00:57:17;1.00;;;0.90;;
10248;SDS011;5169;50.560;9.714;2023-11-19T00:59:42;0.90;;;0.90;;
10248;SDS011;5169;50.560;9.714;2023-11-19T01:02:12;1.03;;;0.93;;
10248;SDS011;5169;50.560;9.714;2023-11-19T01:04:39;1.00;;;1.00;;
10248;SDS011;5169;50.560;9.714;2023-11-19T01:07:05;1.07;;;0.97;;
10248;SDS011;5169;50.560;9.714;2023-11-19T01:09:31;1.20;;;1.10;;
10248;SDS011;5169;50.560;9.714;2023-11-19T01:11:59;1.20;;;1.10;;
10248;SDS011;5169;50.560;9.714;2023-11-19T01:14:26;1.33;;;1.23;;
10248;SDS011;5169;50.560;9.714;2023-11-19T01:16:55;1.40;;;1.30;;
10248;SDS011;5169;50.560;9.714;2023-11-19T01:19:23;1.30;;;1.20;;
10248;SDS011;5169;50.560;9.714;2023-11-19T01:21:49;1.50;;;1.40;;
10248;SDS011;5169;50.560;9.714;2023-11-19T01:24:15;3.27;;;1.50;;
10248;SDS011;5169;50.560;9.714;2023-11-19T01:26:41;1.43;;;1.33;;
10248;SDS011;5169;50.560;9.714;2023-11-19T01:29:10;1.93;;;1.50;;
10248;SDS011;5169;50.560;9.714;2023-11-19T01:31:39;2.37;;;2.10;;
10248;SDS011;5169;50.560;9.714;2023-11-19T01:34:07;1.97;;;1.80;;
10248;SDS011;5169;50.560;9.714;2023-11-19T01:36:39;2.30;;;2.10;;
10248;SDS011;5169;50.560;9.714;2023-11-19T01:39:04;2.30;;;2.10;;
10248;SDS011;5169;50.560;9.714;2023-11-19T01:41:36;2.03;;;1.90;;
10248;SDS011;5169;50.560;9.714;2023-11-19T01:44:04;2.73;;;1.80;;
10248;SDS011;5169;50.560;9.714;2023-11-19T01:46:34;3.07;;;2.00;;
10248;SDS011;5169;50.560;9.714;2023-11-19T01:49:00;1.90;;;1.80;;
10248;SDS011;5169;50.560;9.714;2023-11-19T01:51:27;2.23;;;1.73;;
10248;SDS011;5169;50.560;9.714;2023-11-19T01:53:53;1.60;;;1.50;;
10248;SDS011;5169;50.560;9.714;2023-11-19T01:56:24;2.53;;;2.33;;
10248;SDS011;5169;50.560;9.714;2023-11-19T01:58:55;2.40;;;2.20;;
10248;SDS011;5169;50.560;9.714;2023-11-19T02:01:22;2.00;;;1.80;;
10248;SDS011;5169;50.560;9.714;2023-11-19T02:03:48;2.50;;;2.10;;
10248;SDS011;5169;50.560;9.714;2023-11-19T02:06:14;2.57;;;2.30;;
10248;SDS011;5169;50.560;9.714;2023-11-19T02:08:40;2.90;;;2.23;;
10248;SDS011;5169;50.560;9.714;2023-11-19T02:11:06;2.73;;;2.13;;
10248;SDS011;5169;50.560;9.714;2023-11-19T02:13:32;2.50;;;2.30;;
10248;SDS011;5169;50.560;9.714;2023-11-19T02:15:58;2.40;;;2.20;;
10248;SDS011;5169;50.560;9.714;2023-11-19T02:18:25;3.03;;;2.67;;
10248;SDS011;5169;50.560;9.714;2023-11-19T02:20:58;3.07;;;2.33;;
10248;SDS011;5169;50.560;9.714;2023-11-19T02:23:25;2.63;;;2.40;;
10248;SDS011;5169;50.560;9.714;2023-11-19T02:28:38;2.67;;;2.37;;
10248;SDS011;5169;50.560;9.714;2023-11-19T02:31:05;2.80;;;2.60;;
10248;SDS011;5169;50.560;9.714;2023-11-19T02:33:34;2.83;;;2.63;;
10248;SDS011;5169;50.560;9.714;2023-11-19T02:36:04;2.50;;;2.30;;
10248;SDS011;5169;50.560;9.714;2023-11-19T02:38:31;2.80;;;2.33;;
10248;SDS011;5169;50.560;9.714;2023-11-19T02:40:58;2.57;;;2.37;;
10248;SDS011;5169;50.560;9.714;2023-11-19T02:43:26;2.87;;;2.63;;
10248;SDS011;5169;50.560;9.714;2023-11-19T02:45:58;3.20;;;2.90;;
10248;SDS011;5169;50.560;9.714;2023-11-19T02:48:27;3.03;;;2.73;;
10248;SDS011;5169;50.560;9.714;2023-11-19T02:50:53;3.47;;;2.60;;
10248;SDS011;5169;50.560;9.714;2023-11-19T02:53:25;3.00;;;2.80;;
10248;SDS011;5169;50.560;9.714;2023-11-19T02:55:53;2.70;;;2.50;;
10248;SDS011;5169;50.560;9.714;2023-11-19T02:58:28;2.97;;;2.77;;
10248;SDS011;5169;50.560;9.714;2023-11-19T03:00:54;3.07;;;2.80;;
10248;SDS011;5169;50.560;9.714;2023-11-19T03:03:24;4.80;;;2.70;;
10248;SDS011;5169;50.560;9.714;2023-11-19T03:05:55;2.63;;;2.43;;
10248;SDS011;5169;50.560;9.714;2023-11-19T03:08:21;4.30;;;3.03;;
10248;SDS011;5169;50.560;9.714;2023-11-19T03:10:47;3.20;;;2.90;;
10248;SDS011;5169;50.560;9.714;2023-11-19T03:13:13;3.50;;;3.20;;
10248;SDS011;5169;50.560;9.714;2023-11-19T03:15:39;3.40;;;3.10;;
10248;SDS011;5169;50.560;9.714;2023-11-19T03:18:05;3.60;;;3.30;;
10248;SDS011;5169;50.560;9.714;2023-11-19T03:20:31;4.53;;;3.37;;
10248;SDS011;5169;50.560;9.714;2023-11-19T03:22:59;3.97;;;3.57;;
10248;SDS011;5169;50.560;9.714;2023-11-19T03:25:26;3.70;;;3.40;;
10248;SDS011;5169;50.560;9.714;2023-11-19T03:27:59;4.97;;;3.20;;
10248;SDS011;5169;50.560;9.714;2023-11-19T03:30:28;3.80;;;3.43;;
10248;SDS011;5169;50.560;9.714;2023-11-19T03:32:58;4.30;;;3.57;;
10248;SDS011;5169;50.560;9.714;2023-11-19T03:35:24;4.07;;;3.67;;
10248;SDS011;5169;50.560;9.714;2023-11-19T03:37:53;4.00;;;3.47;;
10248;SDS011;5169;50.560;9.714;2023-11-19T03:40:23;3.23;;;2.80;;
10248;SDS011;5169;50.560;9.714;2023-11-19T03:42:50;3.20;;;2.90;;
10248;SDS011;5169;50.560;9.714;2023-11-19T03:45:15;3.47;;;3.17;;
10248;SDS011;5169;50.560;9.714;2023-11-19T03:47:41;3.20;;;2.90;;
10248;SDS011;5169;50.560;9.714;2023-11-19T03:50:09;3.47;;;3.00;;
10248;SDS011;5169;50.560;9.714;2023-11-19T03:52:35;3.10;;;2.80;;
10248;SDS011;5169;50.560;9.714;2023-11-19T03:55:01;3.30;;;3.00;;
10248;SDS011;5169;50.560;9.714;2023-11-19T03:57:28;3.40;;;3.10;;
10248;SDS011;5169;50.560;9.714;2023-11-19T03:59:56;3.00;;;2.70;;
10248;SDS011;5169;50.560;9.714;2023-11-19T04:02:23;3.80;;;3.40;;
10248;SDS011;5169;50.560;9.714;2023-11-19T04:04:54;4.13;;;3.33;;
10248;SDS011;5169;50.560;9.714;2023-11-19T04:07:20;3.37;;;3.07;;
10248;SDS011;5169;50.560;9.714;2023-11-19T04:09:46;3.43;;;3.10;;
10248;SDS011;5169;50.560;9.714;2023-11-19T04:12:14;3.87;;;3.10;;
10248;SDS011;5169;50.560;9.714;2023-11-19T04:14:40;3.03;;;2.70;;
10248;SDS011;5169;50.560;9.714;2023-11-19T04:17:05;3.03;;;2.73;;
10248;SDS011;5169;50.560;9.714;2023-11-19T04:19:31;6.17;;;3.63;;
10248;SDS011;5169;50.560;9.714;2023-11-19T04:21:57;3.73;;;3.20;;
10248;SDS011;5169;50.560;9.714;2023-11-19T04:24:23;3.73;;;3.00;;
10248;SDS011;5169;50.560;9.714;2023-11-19T04:26:49;5.43;;;2.67;;
10248;SDS011;5169;50.560;9.714;2023-11-19T04:29:17;4.53;;;2.70;;
10248;SDS011;5169;50.560;9.714;2023-11-19T04:31:44;2.47;;;2.20;;
10248;SDS011;5169;50.560;9.714;2023-11-19T04:34:10;2.90;;;2.13;;
10248;SDS011;5169;50.560;9.714;2023-11-19T04:36:36;2.20;;;2.00;;
10248;SDS011;5169;50.560;9.714;2023-11-19T04:39:02;1.80;;;1.70;;
10248;SDS011;5169;50.560;9.714;2023-11-19T04:41:34;3.27;;;2.10;;
10248;SDS011;5169;50.560;9.714;2023-11-19T04:43:59;2.20;;;2.00;;
10248;SDS011;5169;50.560;9.714;2023-11-19T04:46:25;2.43;;;2.10;;
10248;SDS011;5169;50.560;9.714;2023-11-19T04:48:51;2.30;;;2.10;;
10248;SDS011;5169;50.560;9.714;2023-11-19T04:51:16;2.50;;;2.30;;
10248;SDS011;5169;50.560;9.714;2023-11-19T04:53:42;2.87;;;2.57;;
10248;SDS011;5169;50.560;9.714;2023-11-19T04:56:11;2.20;;;2.00;;
10248;SDS011;5169;50.560;9.714;2023-11-19T04:58:37;2.20;;;2.00;;
10248;SDS011;5169;50.560;9.714;2023-11-19T05:01:05;3.63;;;2.33;;
10248;SDS011;5169;50.560;9.714;2023-11-19T05:03:33;2.43;;;2.20;;
10248;SDS011;5169;50.560;9.714;2023-11-19T05:06:00;1.87;;;1.73;;
10248;SDS011;5169;50.560;9.714;2023-11-19T05:08:26;1.73;;;1.63;;
10248;SDS011;5169;50.560;9.714;2023-11-19T05:10:51;1.80;;;1.60;;
10248;SDS011;5169;50.560;9.714;2023-11-19T05:13:19;1.87;;;1.57;;
10248;SDS011;5169;50.560;9.714;2023-11-19T05:15:47;2.20;;;2.00;;
10248;SDS011;5169;50.560;9.714;2023-11-19T05:18:12;2.70;;;1.67;;
10248;SDS011;5169;50.560;9.714;2023-11-19T05:20:38;1.80;;;1.70;;
10248;SDS011;5169;50.560;9.714;2023-11-19T05:23:06;1.80;;;1.70;;
10248;SDS011;5169;50.560;9.714;2023-11-19T05:25:34;1.80;;;1.70;;
10248;SDS011;5169;50.560;9.714;2023-11-19T05:28:01;2.87;;;2.33;;
10248;SDS011;5169;50.560;9.714;2023-11-19T05:30:27;2.47;;;2.27;;
10248;SDS011;5169;50.560;9.714;2023-11-19T05:32:52;2.33;;;2.13;;
10248;SDS011;5169;50.560;9.714;2023-11-19T05:35:18;3.70;;;2.00;;
10248;SDS011;5169;50.560;9.714;2023-11-19T05:37:46;3.53;;;2.70;;
10248;SDS011;5169;50.560;9.714;2023-11-19T05:40:14;2.80;;;2.60;;
10248;SDS011;5169;50.560;9.714;2023-11-19T05:42:40;2.43;;;2.23;;
10248;SDS011;5169;50.560;9.714;2023-11-19T05:45:06;3.43;;;2.80;;
10248;SDS011;5169;50.560;9.714;2023-11-19T05:47:32;3.00;;;2.80;;
10248;SDS011;5169;50.560;9.714;2023-11-19T05:50:03;3.37;;;3.07;;
10248;SDS011;5169;50.560;9.714;2023-11-19T05:52:31;3.30;;;3.00;;
10248;SDS011;5169;50.560;9.714;2023-11-19T05:54:59;3.60;;;3.30;;
10248;SDS011;5169;50.560;9.714;2023-11-19T05:57:29;3.57;;;3.27;;
10248;SDS011;5169;50.560;9.714;2023-11-19T05:59:57;4.10;;;3.70;;
10248;SDS011;5169;50.560;9.714;2023-11-19T06:02:24;4.10;;;3.53;;
10248;SDS011;5169;50.560;9.714;2023-11-19T06:04:52;3.70;;;3.30;;
10248;SDS011;5169;50.560;9.714;2023-11-19T06:07:18;3.00;;;2.80;;
10248;SDS011;5169;50.560;9.714;2023-11-19T06:09:44;3.03;;;2.73;;
10248;SDS011;5169;50.560;9.714;2023-11-19T06:12:10;3.20;;;2.90;;
10248;SDS011;5169;50.560;9.714;2023-11-19T06:14:36;3.17;;;2.87;;
10248;SDS011;5169;50.560;9.714;2023-11-19T06:17:04;3.80;;;3.20;;
10248;SDS011;5169;50.560;9.714;2023-11-19T06:19:33;3.87;;;3.57;;
10248;SDS011;5169;50.560;9.714;2023-11-19T06:21:59;3.90;;;3.60;;
10248;SDS011;5169;50.560;9.714;2023-11-19T06:24:26;3.87;;;3.50;;
10248;SDS011;5169;50.560;9.714;2023-11-19T06:26:52;4.23;;;3.70;;
10248;SDS011;5169;50.560;9.714;2023-11-19T06:29:18;3.70;;;3.40;;
10248;SDS011;5169;50.560;9.714;2023-11-19T06:31:44;3.80;;;3.50;;
10248;SDS011;5169;50.560;9.714;2023-11-19T06:34:13;4.03;;;3.40;;
10248;SDS011;5169;50.560;9.714;2023-11-19T06:36:41;3.60;;;3.07;;
10248;SDS011;5169;50.560;9.714;2023-11-19T06:39:10;2.63;;;2.40;;
10248;SDS011;5169;50.560;9.714;2023-11-19T06:41:36;2.40;;;2.20;;
10248;SDS011;5169;50.560;9.714;2023-11-19T06:44:03;3.30;;;2.90;;
10248;SDS011;5169;50.560;9.714;2023-11-19T06:46:29;3.00;;;2.57;;
10248;SDS011;5169;50.560;9.714;2023-11-19T06:48:56;2.00;;;1.83;;
10248;SDS011;5169;50.560;9.714;2023-11-19T06:51:22;2.17;;;1.93;;
10248;SDS011;5169;50.560;9.714;2023-11-19T06:53:50;2.73;;;1.80;;
10248;SDS011;5169;50.560;9.714;2023-11-19T06:58:48;1.57;;;1.47;;
10248;SDS011;5169;50.560;9.714;2023-11-19T07:01:15;1.63;;;1.53;;
10248;SDS011;5169;50.560;9.714;2023-11-19T07:03:41;3.13;;;1.70;;
10248;SDS011;5169;50.560;9.714;2023-11-19T07:06:06;2.03;;;1.73;;
10248;SDS011;5169;50.560;9.714;2023-11-19T07:08:33;1.87;;;1.50;;
10248;SDS011;5169;50.560;9.714;2023-11-19T07:10:59;2.87;;;1.50;;
10248;SDS011;5169;50.560;9.714;2023-11-19T07:13:27;2.97;;;1.50;;
10248;SDS011;5169;50.560;9.714;2023-11-19T07:15:53;3.37;;;1.47;;
10248;SDS011;5169;50.560;9.714;2023-11-19T07:18:20;1.70;;;1.10;;
10248;SDS011;5169;50.560;9.714;2023-11-19T07:20:49;1.53;;;0.97;;
10248;SDS011;5169;50.560;9.714;2023-11-19T07:23:15;3.07;;;1.00;;
10248;SDS011;5169;50.560;9.714;2023-11-19T07:25:43;1.53;;;1.07;;
10248;SDS011;5169;50.560;9.714;2023-11-19T07:28:12;1.43;;;1.00;;
10248;SDS011;5169;50.560;9.714;2023-11-19T07:30:38;2.40;;;1.10;;
10248;SDS011;5169;50.560;9.714;2023-11-19T07:33:04;2.80;;;1.27;;
10248;SDS011;5169;50.560;9.714;2023-11-19T07:35:32;2.27;;;1.00;;
10248;SDS011;5169;50.560;9.714;2023-11-19T07:37:57;2.53;;;1.10;;
10248;SDS011;5169;50.560;9.714;2023-11-19T07:40:23;2.33;;;0.90;;
10248;SDS011;5169;50.560;9.714;2023-11-19T07:42:49;1.33;;;1.03;;
10248;SDS011;5169;50.560;9.714;2023-11-19T07:45:15;3.27;;;1.00;;
10248;SDS011;5169;50.560;9.714;2023-11-19T07:47:47;2.73;;;0.90;;
10248;SDS011;5169;50.560;9.714;2023-11-19T07:50:16;4.70;;;1.10;;
10248;SDS011;5169;50.560;9.714;2023-11-19T07:52:44;2.43;;;1.53;;
10248;SDS011;5169;50.560;9.714;2023-11-19T07:55:12;3.40;;;1.20;;
10248;SDS011;5169;50.560;9.714;2023-11-19T07:57:40;3.20;;;1.20;;
10248;SDS011;5169;50.560;9.714;2023-11-19T08:00:06;4.97;;;1.30;;
10248;SDS011;5169;50.560;9.714;2023-11-19T08:02:37;3.10;;;1.30;;
10248;SDS011;5169;50.560;9.714;2023-11-19T08:05:03;1.90;;;1.43;;
10248;SDS011;5169;50.560;9.714;2023-11-19T08:07:29;4.53;;;1.80;;
10248;SDS011;5169;50.560;9.714;2023-11-19T08:09:55;4.07;;;2.10;;
10248;SDS011;5169;50.560;9.714;2023-11-19T08:12:20;1.70;;;1.40;;
10248;SDS011;5169;50.560;9.714;2023-11-19T08:14:46;4.67;;;2.00;;
10248;SDS011;5169;50.560;9.714;2023-11-19T08:17:11;3.97;;;2.40;;
10248;SDS011;5169;50.560;9.714;2023-11-19T08:19:37;3.30;;;2.13;;
10248;SDS011;5169;50.560;9.714;2023-11-19T08:22:03;4.77;;;2.00;;
10248;SDS011;5169;50.560;9.714;2023-11-19T08:24:35;2.93;;;2.10;;
10248;SDS011;5169;50.560;9.714;2023-11-19T08:27:00;4.37;;;1.90;;
10248;SDS011;5169;50.560;9.714;2023-11-19T08:29:26;3.27;;;1.73;;
10248;SDS011;5169;50.560;9.714;2023-11-19T08:31:52;2.57;;;1.60;;
10248;SDS011;5169;50.560;9.714;2023-11-19T08:34:18;2.90;;;1.70;;
10248;SDS011;5169;50.560;9.714;2023-11-19T08:36:44;4.10;;;2.10;;
10248;SDS011;5169;50.560;9.714;2023-11-19T08:39:10;2.30;;;1.70;;
10248;SDS011;5169;50.560;9.714;2023-11-19T08:41:35;2.47;;;1.67;;
10248;SDS011;5169;50.560;9.714;2023-11-19T08:44:03;2.83;;;1.73;;
10248;SDS011;5169;50.560;9.714;2023-11-19T08:46:28;6.60;;;1.70;;
10248;SDS011;5169;50.560;9.714;2023-11-19T08:48:54;3.13;;;1.67;;
10248;SDS011;5169;50.560;9.714;2023-11-19T08:51:22;2.60;;;1.50;;
10248;SDS011;5169;50.560;9.714;2023-11-19T08:53:49;2.40;;;1.27;;
10248;SDS011;5169;50.560;9.714;2023-11-19T08:56:17;3.60;;;1.33;;
10248;SDS011;5169;50.560;9.714;2023-11-19T08:58:43;2.07;;;1.43;;
10248;SDS011;5169;50.560;9.714;2023-11-19T09:01:08;3.33;;;1.67;;
10248;SDS011;5169;50.560;9.714;2023-11-19T09:03:38;3.07;;;1.70;;
10248;SDS011;5169;50.560;9.714;2023-11-19T09:06:05;2.07;;;1.37;;
10248;SDS011;5169;50.560;9.714;2023-11-19T09:08:31;2.73;;;1.60;;
10248;SDS011;5169;50.560;9.714;2023-11-19T09:10:56;2.57;;;1.47;;
10248;SDS011;5169;50.560;9.714;2023-11-19T09:13:22;4.63;;;1.40;;
10248;SDS011;5169;50.560;9.714;2023-11-19T09:15:48;2.50;;;1.30;;
10248;SDS011;5169;50.560;9.714;2023-11-19T09:18:13;2.50;;;1.23;;
10248;SDS011;5169;50.560;9.714;2023-11-19T09:20:39;2.43;;;1.20;;
10248;SDS011;5169;50.560;9.714;2023-11-19T09:23:07;2.77;;;1.17;;
10248;SDS011;5169;50.560;9.714;2023-11-19T09:25:33;4.07;;;1.17;;
10248;SDS011;5169;50.560;9.714;2023-11-19T09:27:59;2.83;;;1.30;;
10248;SDS011;5169;50.560;9.714;2023-11-19T09:30:25;3.47;;;1.20;;
10248;SDS011;5169;50.560;9.714;2023-11-19T09:32:50;5.30;;;1.10;;
10248;SDS011;5169;50.560;9.714;2023-11-19T09:35:18;4.27;;;1.20;;
10248;SDS011;5169;50.560;9.714;2023-11-19T09:37:44;3.07;;;1.10;;
10248;SDS011;5169;50.560;9.714;2023-11-19T09:40:09;2.37;;;1.20;;
10248;SDS011;5169;50.560;9.714;2023-11-19T09:42:43;3.80;;;1.10;;
10248;SDS011;5169;50.560;9.714;2023-11-19T09:45:15;3.60;;;1.30;;
10248;SDS011;5169;50.560;9.714;2023-11-19T09:47:43;4.30;;;1.30;;
10248;SDS011;5169;50.560;9.714;2023-11-19T09:50:17;4.77;;;1.60;;
10248;SDS011;5169;50.560;9.714;2023-11-19T09:52:44;2.97;;;1.17;;
10248;SDS011;5169;50.560;9.714;2023-11-19T09:55:10;5.90;;;1.57;;
10248;SDS011;5169;50.560;9.714;2023-11-19T09:57:36;3.27;;;1.20;;
10248;SDS011;5169;50.560;9.714;2023-11-19T10:00:05;6.43;;;1.60;;
10248;SDS011;5169;50.560;9.714;2023-11-19T10:02:35;6.83;;;1.67;;
10248;SDS011;5169;50.560;9.714;2023-11-19T10:05:03;5.63;;;1.33;;
10248;SDS011;5169;50.560;9.714;2023-11-19T10:07:36;7.20;;;1.53;;
10248;SDS011;5169;50.560;9.714;2023-11-19T10:10:02;6.00;;;1.70;;
10248;SDS011;5169;50.560;9.714;2023-11-19T10:12:31;3.60;;;1.23;;
10248;SDS011;5169;50.560;9.714;2023-11-19T10:14:57;4.80;;;1.30;;
10248;SDS011;5169;50.560;9.714;2023-11-19T10:17:32;2.73;;;1.27;;
10248;SDS011;5169;50.560;9.714;2023-11-19T10:19:58;5.70;;;1.50;;
10248;SDS011;5169;50.560;9.714;2023-11-19T10:22:24;6.73;;;1.50;;
10248;SDS011;5169;50.560;9.714;2023-11-19T10:24:51;7.43;;;1.80;;
10248;SDS011;5169;50.560;9.714;2023-11-19T10:27:17;3.67;;;1.20;;
10248;SDS011;5169;50.560;9.714;2023-11-19T10:29:46;3.53;;;1.33;;
10248;SDS011;5169;50.560;9.714;2023-11-19T10:32:13;6.00;;;1.77;;
10248;SDS011;5169;50.560;9.714;2023-11-19T10:34:42;6.93;;;1.90;;
10248;SDS011;5169;50.560;9.714;2023-11-19T10:37:30;7.83;;;1.53;;
10248;SDS011;5169;50.560;9.714;2023-11-19T10:40:02;7.27;;;1.97;;
10248;SDS011;5169;50.560;9.714;2023-11-19T10:42:31;5.17;;;1.70;;
10248;SDS011;5169;50.560;9.714;2023-11-19T10:44:56;4.00;;;1.50;;
10248;SDS011;5169;50.560;9.714;2023-11-19T10:47:22;4.73;;;1.40;;
10248;SDS011;5169;50.560;9.714;2023-11-19T10:49:48;9.37;;;1.73;;
10248;SDS011;5169;50.560;9.714;2023-11-19T10:52:20;5.77;;;1.80;;
10248;SDS011;5169;50.560;9.714;2023-11-19T10:54:52;4.70;;;1.67;;
10248;SDS011;5169;50.560;9.714;2023-11-19T10:57:24;5.03;;;1.63;;
10248;SDS011;5169;50.560;9.714;2023-11-19T10:59:55;4.47;;;1.60;;
10248;SDS011;5169;50.560;9.714;2023-11-19T11:02:29;5.37;;;1.40;;
10248;SDS011;5169;50.560;9.714;2023-11-19T11:05:00;5.37;;;1.63;;
10248;SDS011;5169;50.560;9.714;2023-11-19T11:07:27;5.90;;;2.07;;
10248;SDS011;5169;50.560;9.714;2023-11-19T11:09:58;5.77;;;2.07;;
10248;SDS011;5169;50.560;9.714;2023-11-19T11:12:25;4.77;;;1.93;;
10248;SDS011;5169;50.560;9.714;2023-11-19T11:14:53;5.30;;;1.87;;
10248;SDS011;5169;50.560;9.714;2023-11-19T11:17:20;5.47;;;2.00;;
10248;SDS011;5169;50.560;9.714;2023-11-19T11:19:55;8.43;;;2.20;;
10248;SDS011;5169;50.560;9.714;2023-11-19T11:22:23;6.50;;;2.10;;
10248;SDS011;5169;50.560;9.714;2023-11-19T11:25:04;5.83;;;2.03;;
10248;SDS011;5169;50.560;9.714;2023-11-19T11:36:20;9.13;;;2.77;;
10248;SDS011;5169;50.560;9.714;2023-11-19T11:38:48;8.07;;;2.77;;
10248;SDS011;5169;50.560;9.714;2023-11-19T11:41:18;6.70;;;2.10;;
10248;SDS011;5169;50.560;9.714;2023-11-19T11:43:52;8.93;;;2.93;;
10248;SDS011;5169;50.560;9.714;2023-11-19T11:49:01;9.10;;;2.23;;
10248;SDS011;5169;50.560;9.714;2023-11-19T11:59:42;12.00;;;3.03;;
10248;SDS011;5169;50.560;9.714;2023-11-19T12:02:12;12.43;;;3.13;;
10248;SDS011;5169;50.560;9.714;2023-11-19T12:04:39;8.63;;;2.37;;
10248;SDS011;5169;50.560;9.714;2023-11-19T12:07:15;9.50;;;2.07;;
10248;SDS011;5169;50.560;9.714;2023-11-19T12:09:46;10.73;;;2.20;;
10248;SDS011;5169;50.560;9.714;2023-11-19T12:20:10;10.37;;;2.70;;
10248;SDS011;5169;50.560;9.714;2023-11-19T12:22:38;9.67;;;2.00;;
10248;SDS011;5169;50.560;9.714;2023-11-19T12:25:05;7.57;;;2.33;;
10248;SDS011;5169;50.560;9.714;2023-11-19T12:27:32;9.63;;;2.53;;
10248;SDS011;5169;50.560;9.714;2023-11-19T12:29:59;7.30;;;2.07;;
10248;SDS011;5169;50.560;9.714;2023-11-19T12:32:25;7.97;;;2.33;;
10248;SDS011;5169;50.560;9.714;2023-11-19T12:34:52;9.00;;;2.50;;
10248;SDS011;5169;50.560;9.714;2023-11-19T12:37:21;10.87;;;2.60;;
10248;SDS011;5169;50.560;9.714;2023-11-19T12:39:46;9.23;;;2.60;;
10248;SDS011;5169;50.560;9.714;2023-11-19T12:42:12;8.60;;;2.47;;
10248;SDS011;5169;50.560;9.714;2023-11-19T12:44:38;7.40;;;2.20;;
10248;SDS011;5169;50.560;9.714;2023-11-19T12:47:06;12.57;;;2.63;;
10248;SDS011;5169;50.560;9.714;2023-11-19T12:49:34;8.90;;;2.50;;
10248;SDS011;5169;50.560;9.714;2023-11-19T12:52:00;9.83;;;2.40;;
10248;SDS011;5169;50.560;9.714;2023-11-19T12:54:36;8.23;;;1.97;;
10248;SDS011;5169;50.560;9.714;2023-11-19T12:57:02;8.40;;;2.40;;
10248;SDS011;5169;50.560;9.714;2023-11-19T12:59:30;7.90;;;2.13;;
10248;SDS011;5169;50.560;9.714;2023-11-19T13:01:56;7.43;;;2.00;;
10248;SDS011;5169;50.560;9.714;2023-11-19T13:04:22;8.00;;;2.10;;
10248;SDS011;5169;50.560;9.714;2023-11-19T13:06:52;7.53;;;2.23;;
10248;SDS011;5169;50.560;9.714;2023-11-19T13:09:24;10.70;;;2.50;;
10248;SDS011;5169;50.560;9.714;2023-11-19T13:11:53;8.93;;;2.40;;
10248;SDS011;5169;50.560;9.714;2023-11-19T13:14:22;5.77;;;1.93;;
10248;SDS011;5169;50.560;9.714;2023-11-19T13:17:03;9.63;;;2.30;;
10248;SDS011;5169;50.560;9.714;2023-11-19T13:19:30;9.00;;;2.40;;
10248;SDS011;5169;50.560;9.714;2023-11-19T13:21:56;8.30;;;2.17;;
10248;SDS011;5169;50.560;9.714;2023-11-19T13:24:24;8.33;;;2.57;;
10248;SDS011;5169;50.560;9.714;2023-11-19T13:26:52;10.63;;;2.80;;
10248;SDS011;5169;50.560;9.714;2023-11-19T13:29:17;9.33;;;2.20;;
10248;SDS011;5169;50.560;9.714;2023-11-19T13:31:43;9.90;;;2.33;;
10248;SDS011;5169;50.560;9.714;2023-11-19T13:34:08;10.77;;;3.10;;
10248;SDS011;5169;50.560;9.714;2023-11-19T13:36:36;7.60;;;1.97;;
10248;SDS011;5169;50.560;9.714;2023-11-19T13:39:04;10.97;;;2.10;;
10248;SDS011;5169;50.560;9.714;2023-11-19T13:41:30;11.73;;;2.23;;
10248;SDS011;5169;50.560;9.714;2023-11-19T13:43:55;11.20;;;2.83;;
10248;SDS011;5169;50.560;9.714;2023-11-19T13:46:21;6.93;;;2.10;;
10248;SDS011;5169;50.560;9.714;2023-11-19T13:48:47;9.67;;;2.43;;
10248;SDS011;5169;50.560;9.714;2023-11-19T13:51:14;10.30;;;2.87;;
10248;SDS011;5169;50.560;9.714;2023-11-19T13:53:40;10.23;;;2.20;;
10248;SDS011;5169;50.560;9.714;2023-11-19T13:56:06;10.80;;;2.20;;
10248;SDS011;5169;50.560;9.714;2023-11-19T13:58:32;7.57;;;2.40;;
10248;SDS011;5169;50.560;9.714;2023-11-19T14:00:58;10.97;;;2.40;;
10248;SDS011;5169;50.560;9.714;2023-11-19T14:03:23;7.40;;;1.80;;
10248;SDS011;5169;50.560;9.714;2023-11-19T14:05:51;10.60;;;1.83;;
10248;SDS011;5169;50.560;9.714;2023-11-19T14:08:20;7.80;;;1.80;;
10248;SDS011;5169;50.560;9.714;2023-11-19T14:10:45;10.03;;;2.27;;
10248;SDS011;5169;50.560;9.714;2023-11-19T14:13:11;8.83;;;2.27;;
10248;SDS011;5169;50.560;9.714;2023-11-19T14:15:36;9.83;;;2.30;;
10248;SDS011;5169;50.560;9.714;2023-11-19T14:18:02;9.20;;;2.23;;
10248;SDS011;5169;50.560;9.714;2023-11-19T14:20:28;7.67;;;2.10;;
10248;SDS011;5169;50.560;9.714;2023-11-19T14:22:54;8.77;;;2.00;;
10248;SDS011;5169;50.560;9.714;2023-11-19T14:25:19;7.87;;;2.20;;
10248;SDS011;5169;50.560;9.714;2023-11-19T14:27:46;10.03;;;2.07;;
10248;SDS011;5169;50.560;9.714;2023-11-19T14:30:12;13.27;;;2.77;;
10248;SDS011;5169;50.560;9.714;2023-11-19T14:32:41;8.63;;;2.10;;
10248;SDS011;5169;50.560;9.714;2023-11-19T14:35:09;10.87;;;2.00;;
10248;SDS011;5169;50.560;9.714;2023-11-19T14:37:35;9.47;;;2.07;;
10248;SDS011;5169;50.560;9.714;2023-11-19T14:40:00;8.50;;;1.97;;
10248;SDS011;5169;50.560;9.714;2023-11-19T14:42:30;10.03;;;2.00;;
10248;SDS011;5169;50.560;9.714;2023-11-19T14:44:57;11.33;;;2.63;;
10248;SDS011;5169;50.560;9.714;2023-11-19T14:47:27;8.73;;;2.40;;
10248;SDS011;5169;50.560;9.714;2023-11-19T14:49:54;8.07;;;2.07;;
10248;SDS011;5169;50.560;9.714;2023-11-19T14:52:19;8.97;;;2.90;;
10248;SDS011;5169;50.560;9.714;2023-11-19T14:54:45;8.60;;;2.30;;
10248;SDS011;5169;50.560;9.714;2023-11-19T14:57:10;10.13;;;2.80;;
10248;SDS011;5169;50.560;9.714;2023-11-19T14:59:39;8.27;;;2.60;;
10248;SDS011;5169;50.560;9.714;2023-11-19T15:02:05;9.07;;;2.40;;
10248;SDS011;5169;50.560;9.714;2023-11-19T15:04:30;8.43;;;1.80;;
10248;SDS011;5169;50.560;9.714;2023-11-19T15:06:57;10.83;;;2.40;;
10248;SDS011;5169;50.560;9.714;2023-11-19T15:09:23;13.33;;;2.80;;
10248;SDS011;5169;50.560;9.714;2023-11-19T15:11:49;8.67;;;2.20;;
10248;SDS011;5169;50.560;9.714;2023-11-19T15:14:15;11.97;;;2.93;;
10248;SDS011;5169;50.560;9.714;2023-11-19T15:16:42;14.87;;;3.17;;
10248;SDS011;5169;50.560;9.714;2023-11-19T15:19:11;12.80;;;2.67;;
10248;SDS011;5169;50.560;9.714;2023-11-19T15:21:37;8.07;;;2.20;;
10248;SDS011;5169;50.560;9.714;2023-11-19T15:24:03;5.57;;;1.60;;
10248;SDS011;5169;50.560;9.714;2023-11-19T15:26:35;8.47;;;1.73;;
10248;SDS011;5169;50.560;9.714;2023-11-19T15:29:01;6.60;;;1.70;;
10248;SDS011;5169;50.560;9.714;2023-11-19T15:31:28;8.07;;;1.77;;
10248;SDS011;5169;50.560;9.714;2023-11-19T15:33:56;8.13;;;1.83;;